createdAt,value
2022-08-17T04:02:36.539Z,59.45
2022-08-17T04:05:06.189Z,59.35
2022-08-17T04:07:35.582Z,58.63
2022-08-17T04:10:04.969Z,58.63
2022-08-17T04:12:44.833Z,58.59
2022-08-17T04:15:15.332Z,58.77
2022-08-17T04:17:47.373Z,58.73
2022-08-17T04:20:17.971Z,58.65
2022-08-17T04:22:58.342Z,58.61
2022-08-17T04:25:28.117Z,58.56
2022-08-17T04:27:57.610Z,59.01
2022-08-17T04:30:27.336Z,59.43
2022-08-17T04:33:05.792Z,59.50
2022-08-17T04:35:37.943Z,59.11
2022-08-17T04:38:07.955Z,59.29
2022-08-17T04:40:49.993Z,59.04
2022-08-17T04:43:21.368Z,59.40
2022-08-17T04:45:56.120Z,59.60
2022-08-17T04:48:36.913Z,59.24
2022-08-17T04:51:09.886Z,59.43
2022-08-17T04:53:39.784Z,58.88
2022-08-17T04:56:11.665Z,59.19
2022-08-17T04:58:45.768Z,59.23
2022-08-17T05:01:15.395Z,59.91
2022-08-17T05:03:47.424Z,60.02
2022-08-17T05:06:16.816Z,59.41
2022-08-17T05:08:46.167Z,59.36
2022-08-17T05:11:15.825Z,59.27
2022-08-17T05:13:45.165Z,58.82
2022-08-17T05:16:14.954Z,58.79
2022-08-17T05:18:47.005Z,59.17
2022-08-17T05:21:16.750Z,58.69
2022-08-17T05:23:53.241Z,58.24
2022-08-17T05:26:27.215Z,58.65
2022-08-17T05:29:00.632Z,58.47
2022-08-17T05:31:32.748Z,58.03
2022-08-17T05:34:04.693Z,58.60
2022-08-17T05:36:43.287Z,58.62
2022-08-17T05:39:16.954Z,58.42
2022-08-17T05:41:47.462Z,59.21
2022-08-17T05:44:17.086Z,58.81
2022-08-17T05:46:49.988Z,59.57
2022-08-17T05:49:27.196Z,59.43
2022-08-17T05:52:04.373Z,59.19
2022-08-17T05:54:39.578Z,58.95
2022-08-17T05:57:16.599Z,58.44
2022-08-17T05:59:54.263Z,59.25
2022-08-17T06:02:25.660Z,59.04
2022-08-17T06:05:08.145Z,59.06
2022-08-17T06:07:42.408Z,58.69
2022-08-17T06:10:15.981Z,58.45
2022-08-17T06:12:51.430Z,58.78
2022-08-17T06:15:32.125Z,58.61
2022-08-17T06:18:02.481Z,58.67
2022-08-17T06:20:38.599Z,58.95
2022-08-17T06:23:11.062Z,58.32
2022-08-17T06:25:45.695Z,57.81
2022-08-17T06:28:17.209Z,58.06
2022-08-17T06:30:59.496Z,58.19
2022-08-17T06:33:32.228Z,58.23
2022-08-17T06:36:09.618Z,58.60
2022-08-17T06:38:45.545Z,58.62
2022-08-17T06:41:20.159Z,58.88
2022-08-17T06:43:53.333Z,58.94
2022-08-17T06:46:26.292Z,59.08
2022-08-17T06:49:07.404Z,58.76
2022-08-17T06:51:41.648Z,58.34
2022-08-17T06:54:13.209Z,58.92
2022-08-17T06:56:54.252Z,58.48
2022-08-17T06:59:30.465Z,58.47
2022-08-17T07:02:29.104Z,58.14
2022-08-17T07:05:09.185Z,57.76
2022-08-17T07:07:54.818Z,57.72
2022-08-17T07:10:24.984Z,57.45
2022-08-17T07:12:56.349Z,57.64
2022-08-17T07:15:28.609Z,57.47
2022-08-17T07:17:59.748Z,57.59
2022-08-17T07:20:31.307Z,57.87
2022-08-17T07:23:06.449Z,57.75
2022-08-17T07:25:35.871Z,57.46
2022-08-17T07:28:07.894Z,57.30
2022-08-17T07:30:46.954Z,57.00
2022-08-17T07:33:20.265Z,57.10
2022-08-17T07:35:50.273Z,56.21
2022-08-17T07:38:26.988Z,56.26
2022-08-17T07:41:05.294Z,55.46
2022-08-17T07:43:35.339Z,55.68
2022-08-17T07:46:27.106Z,55.42
2022-08-17T07:48:57.999Z,55.23
2022-08-17T07:51:28.702Z,55.49
2022-08-17T07:54:14.045Z,55.70
2022-08-17T07:56:46.589Z,55.74
2022-08-17T07:59:18.117Z,55.32
2022-08-17T08:02:05.381Z,54.98
2022-08-17T08:07:29.566Z,54.77
2022-08-17T08:10:11.366Z,54.82
2022-08-17T08:12:41.796Z,54.85
2022-08-17T08:15:15.513Z,54.27
2022-08-17T08:17:49.574Z,53.95
2022-08-17T08:20:37.615Z,54.11
2022-08-17T08:23:15.719Z,53.54
2022-08-17T08:25:56.808Z,53.40
2022-08-17T08:28:31.152Z,53.96
2022-08-17T08:31:06.646Z,53.16
2022-08-17T08:33:46.092Z,53.35
2022-08-17T08:37:14.063Z,52.77
2022-08-17T08:39:20.491Z,52.32
2022-08-17T08:41:58.935Z,53.10
2022-08-17T08:45:00.952Z,52.99
2022-08-17T08:47:35.500Z,52.74
2022-08-17T08:50:37.110Z,52.32
2022-08-17T08:53:15.021Z,52.13
2022-08-17T08:55:50.583Z,52.50
2022-08-17T08:58:32.146Z,51.42
2022-08-17T09:01:16.904Z,52.34
2022-08-17T09:04:19.930Z,51.91
2022-08-17T09:06:56.554Z,51.66
2022-08-17T09:09:30.242Z,52.08
2022-08-17T09:12:05.074Z,51.51
2022-08-17T09:14:45.508Z,51.16
2022-08-17T09:17:19.264Z,51.54
2022-08-17T09:19:51.142Z,51.22
2022-08-17T09:22:31.502Z,51.62
2022-08-17T09:27:33.628Z,51.29
2022-08-17T09:30:07.997Z,50.46
2022-08-17T09:32:44.741Z,50.75
2022-08-17T09:35:17.405Z,49.76
2022-08-17T09:37:56.227Z,49.88
2022-08-17T09:40:27.116Z,49.61
2022-08-17T09:42:59.110Z,49.03
2022-08-17T09:45:41.053Z,49.04
2022-08-17T09:48:14.414Z,49.54
2022-08-17T09:51:05.341Z,49.66
2022-08-17T09:53:36.413Z,49.73
2022-08-17T09:56:11.031Z,49.88
2022-08-17T09:58:47.671Z,49.42
2022-08-17T10:01:29.218Z,49.48
2022-08-17T10:04:08.050Z,49.09
2022-08-17T10:06:40.566Z,48.95
2022-08-17T10:09:15.805Z,48.38
2022-08-17T10:12:11.666Z,48.25
2022-08-17T10:14:53.373Z,47.68
2022-08-17T10:17:30.678Z,47.50
2022-08-17T10:20:05.593Z,47.44
2022-08-17T10:22:55.035Z,47.22
2022-08-17T10:25:54.034Z,47.39
2022-08-17T10:28:29.722Z,47.11
2022-08-17T10:31:30.812Z,47.16
2022-08-17T10:34:00.493Z,46.57
2022-08-17T10:36:38.834Z,46.83
2022-08-17T10:39:15.000Z,46.70
2022-08-17T10:41:46.855Z,46.44
2022-08-17T10:44:39.280Z,46.02
2022-08-17T10:47:11.793Z,45.69
2022-08-17T10:49:49.610Z,45.59
2022-08-17T10:52:34.161Z,45.12
2022-08-17T10:55:14.542Z,44.49
2022-08-17T10:57:45.578Z,44.32
2022-08-17T11:00:17.483Z,44.25
2022-08-17T11:02:50.499Z,44.10
2022-08-17T11:05:32.323Z,43.85
2022-08-17T11:08:11.890Z,43.69
2022-08-17T11:10:52.639Z,43.68
2022-08-17T11:13:28.120Z,43.23
2022-08-17T11:16:08.130Z,43.00
2022-08-17T11:18:55.510Z,42.37
2022-08-17T11:21:38.573Z,42.35
2022-08-17T11:24:19.334Z,42.62
2022-08-17T11:27:01.712Z,42.35
2022-08-17T11:29:33.916Z,41.74
2022-08-17T11:32:07.848Z,41.35
2022-08-17T11:34:41.795Z,40.94
2022-08-17T11:37:30.861Z,41.00
2022-08-17T11:40:12.934Z,39.73
2022-08-17T11:42:53.771Z,40.13
2022-08-17T11:45:37.950Z,39.94
2022-08-17T11:48:28.117Z,38.86
2022-08-17T11:51:14.755Z,40.10
2022-08-17T11:54:31.651Z,40.39
2022-08-17T11:56:53.057Z,38.58
2022-08-17T11:59:39.315Z,37.48
2022-08-17T12:02:31.739Z,36.76
2022-08-17T12:05:27.543Z,37.09
2022-08-17T12:08:03.805Z,36.83
2022-08-17T12:10:35.800Z,37.13
2022-08-17T12:13:09.195Z,37.43
2022-08-17T12:15:40.294Z,37.46
2022-08-17T12:18:09.874Z,37.82
2022-08-17T12:20:45.703Z,37.74
2022-08-17T12:23:20.240Z,37.38
2022-08-17T12:25:52.903Z,37.40
2022-08-17T12:28:25.061Z,37.66
2022-08-17T12:30:55.155Z,37.53
2022-08-17T12:33:28.877Z,38.17
2022-08-17T12:36:03.554Z,38.24
2022-08-17T12:38:34.890Z,38.14
2022-08-17T12:41:26.288Z,37.48
2022-08-17T12:44:02.470Z,36.47
2022-08-17T12:46:33.809Z,36.14
2022-08-17T12:49:20.503Z,35.95
2022-08-17T12:51:54.568Z,36.07
2022-08-17T12:54:31.470Z,35.76
2022-08-17T12:57:03.480Z,36.10
2022-08-17T12:59:37.096Z,35.51
2022-08-17T13:02:12.926Z,35.64
2022-08-17T13:04:43.008Z,35.45
2022-08-17T13:07:15.528Z,35.57
2022-08-17T13:09:53.226Z,35.57
2022-08-17T13:12:28.584Z,35.40
2022-08-17T13:14:58.061Z,35.07
2022-08-17T13:17:32.001Z,34.59
2022-08-17T13:20:01.656Z,34.95
2022-08-17T13:22:34.435Z,34.85
2022-08-17T13:25:09.346Z,34.49
2022-08-17T13:27:38.885Z,34.30
2022-08-17T13:30:14.943Z,33.81
2022-08-17T13:32:46.597Z,33.75
2022-08-17T13:35:39.892Z,33.71
2022-08-17T13:38:13.637Z,32.98
2022-08-17T13:40:45.360Z,32.82
2022-08-17T13:43:14.906Z,32.50
2022-08-17T13:45:50.338Z,31.72
2022-08-17T13:48:29.274Z,30.52
2022-08-17T13:51:13.774Z,31.27
2022-08-17T13:53:57.714Z,31.23
2022-08-17T13:56:37.913Z,30.62
2022-08-17T13:59:10.098Z,30.04
2022-08-17T14:01:40.821Z,30.96
2022-08-17T14:04:11.356Z,31.52
2022-08-17T14:06:53.980Z,31.68
2022-08-17T14:09:28.288Z,31.26
2022-08-17T14:11:59.504Z,31.18
2022-08-17T14:14:29.591Z,30.61
2022-08-17T14:16:59.005Z,31.16
2022-08-17T14:19:28.731Z,31.08
2022-08-17T14:21:59.879Z,31.09
2022-08-17T14:24:35.292Z,30.35
2022-08-17T14:27:05.676Z,29.56
2022-08-17T14:29:36.107Z,28.64
2022-08-17T14:32:09.574Z,28.92
2022-08-17T14:34:38.969Z,29.15
2022-08-17T14:37:08.420Z,28.65
2022-08-17T14:39:40.561Z,28.19
2022-08-17T14:42:11.512Z,28.79
2022-08-17T14:44:41.048Z,28.36
2022-08-17T14:47:13.861Z,27.91
2022-08-17T14:49:43.796Z,27.55
2022-08-17T14:52:18.523Z,27.71
2022-08-17T14:54:51.404Z,27.37
2022-08-17T14:57:26.183Z,27.64
2022-08-17T15:00:04.334Z,27.21
2022-08-17T15:02:34.152Z,27.49
2022-08-17T15:05:04.060Z,27.02
2022-08-17T15:07:33.616Z,26.91
2022-08-17T15:10:06.275Z,27.39
2022-08-17T15:12:35.625Z,27.19
2022-08-17T15:15:05.475Z,27.24
2022-08-17T15:17:44.906Z,26.79
2022-08-17T15:20:16.565Z,27.16
2022-08-17T15:22:46.357Z,27.32
2022-08-17T15:25:19.019Z,27.64
2022-08-17T15:27:48.574Z,27.11
2022-08-17T15:30:18.427Z,27.47
2022-08-17T15:32:54.068Z,26.67
2022-08-17T15:35:27.040Z,27.40
2022-08-17T15:37:57.919Z,27.60
2022-08-17T15:40:29.865Z,27.53
2022-08-17T15:43:06.830Z,27.03
2022-08-17T15:45:36.263Z,26.82
2022-08-17T15:48:05.984Z,27.19
2022-08-17T15:50:35.585Z,27.53
2022-08-17T15:53:05.251Z,28.04
2022-08-17T15:55:38.682Z,27.78
2022-08-17T15:58:08.208Z,27.63
2022-08-17T16:00:49.421Z,26.89
2022-08-17T16:04:01.382Z,27.00
2022-08-17T16:06:16.825Z,26.97
2022-08-17T16:08:46.759Z,27.54
2022-08-17T16:11:19.454Z,27.65
2022-08-17T16:13:54.526Z,27.72
2022-08-17T16:16:26.140Z,27.82
2022-08-17T16:18:59.156Z,27.03
2022-08-17T16:21:31.297Z,28.12
2022-08-17T16:24:12.740Z,27.91
2022-08-17T16:26:45.771Z,28.00
2022-08-17T16:29:15.181Z,27.93
2022-08-17T16:31:44.581Z,28.01
2022-08-17T16:34:18.046Z,28.45
2022-08-17T16:36:54.631Z,28.12
2022-08-17T16:39:26.124Z,28.77
2022-08-17T16:41:58.250Z,29.28
2022-08-17T16:44:31.783Z,29.91
2022-08-17T16:47:01.365Z,30.74
2022-08-17T16:49:37.020Z,31.24
2022-08-17T16:52:09.908Z,31.71
2022-08-17T16:54:40.648Z,31.99
2022-08-17T16:57:12.731Z,32.19
2022-08-17T16:59:44.921Z,32.25
2022-08-17T17:02:17.861Z,32.53
2022-08-17T17:04:51.997Z,32.96
2022-08-17T17:07:36.461Z,32.76
2022-08-17T17:10:07.580Z,32.64
2022-08-17T17:13:04.000Z,33.32
2022-08-17T17:15:34.692Z,33.52
2022-08-17T17:18:07.032Z,33.56
2022-08-17T17:20:40.912Z,33.50
2022-08-17T17:23:12.637Z,34.16
2022-08-17T17:25:47.088Z,33.93
2022-08-17T17:28:25.104Z,33.92
2022-08-17T17:30:58.324Z,34.61
2022-08-17T17:33:34.871Z,34.75
2022-08-17T17:36:09.521Z,34.73
2022-08-17T17:38:43.525Z,35.67
2022-08-17T17:41:15.956Z,36.02
2022-08-17T17:43:49.429Z,36.07
2022-08-17T17:46:28.085Z,36.05
2022-08-17T17:48:58.321Z,36.31
2022-08-17T17:52:06.483Z,36.77
2022-08-17T17:54:32.378Z,37.08
2022-08-17T17:57:05.741Z,36.73
2022-08-17T17:59:44.182Z,36.84
2022-08-17T18:02:36.927Z,36.86
2022-08-17T18:05:11.005Z,37.58
2022-08-17T18:07:43.436Z,37.29
2022-08-17T18:10:19.822Z,37.32
2022-08-17T18:13:05.469Z,37.58
2022-08-17T18:15:39.687Z,37.91
2022-08-17T18:18:24.117Z,37.77
2022-08-17T18:20:56.076Z,38.00
2022-08-17T18:23:28.648Z,37.88
2022-08-17T18:25:59.506Z,38.68
2022-08-17T18:28:30.814Z,39.01
2022-08-17T18:31:15.007Z,39.26
2022-08-17T18:33:48.413Z,39.29
2022-08-17T18:36:28.620Z,39.54
2022-08-17T18:39:12.148Z,39.06
2022-08-17T18:41:43.136Z,39.90
2022-08-17T18:44:22.101Z,40.20
2022-08-17T18:47:07.608Z,40.04
2022-08-17T18:49:39.676Z,39.75
2022-08-17T18:52:15.844Z,40.42
2022-08-17T18:55:02.490Z,40.39
2022-08-17T18:57:34.765Z,40.44
2022-08-17T19:00:04.922Z,40.41
2022-08-17T19:02:50.814Z,40.19
2022-08-17T19:05:35.728Z,40.33
2022-08-17T19:08:18.705Z,41.02
2022-08-17T19:10:48.978Z,41.26
2022-08-17T19:13:24.020Z,41.32
2022-08-17T19:16:12.161Z,41.35
2022-08-17T19:18:47.931Z,41.78
2022-08-17T19:21:22.899Z,41.17
2022-08-17T19:23:54.990Z,41.50
2022-08-17T19:26:54.573Z,41.32
2022-08-17T19:29:22.127Z,41.45
2022-08-17T19:31:52.991Z,41.58
2022-08-17T19:34:29.856Z,41.42
2022-08-17T19:37:07.592Z,41.08
2022-08-17T19:39:40.324Z,41.31
2022-08-17T19:42:12.749Z,41.36
2022-08-17T19:44:47.140Z,41.47
2022-08-17T19:47:43.145Z,41.53
2022-08-17T19:50:14.510Z,42.06
2022-08-17T19:52:53.285Z,42.09
2022-08-17T19:55:30.621Z,41.66
2022-08-17T19:58:04.985Z,41.94
2022-08-17T20:00:37.151Z,42.00
2022-08-17T20:03:16.204Z,42.66
2022-08-17T20:06:11.368Z,42.90
2022-08-17T20:08:43.737Z,43.53
2022-08-17T20:11:17.922Z,43.85
2022-08-17T20:13:51.299Z,43.89
2022-08-17T20:16:21.955Z,43.95
2022-08-17T20:18:55.059Z,43.59
2022-08-17T20:21:27.185Z,43.88
2022-08-17T20:24:02.311Z,43.74
2022-08-17T20:26:38.080Z,44.23
2022-08-17T20:29:12.372Z,43.88
2022-08-17T20:31:44.697Z,43.66
2022-08-17T20:34:37.378Z,44.71
2022-08-17T20:37:09.046Z,45.38
2022-08-17T20:39:44.704Z,45.68
2022-08-17T20:42:29.921Z,45.69
2022-08-17T20:45:02.434Z,46.16
2022-08-17T20:47:35.000Z,46.41
2022-08-17T20:50:06.949Z,46.10
2022-08-17T20:52:51.366Z,46.65
2022-08-17T20:55:35.756Z,46.74
2022-08-17T20:58:37.072Z,46.81
2022-08-17T21:01:24.472Z,46.63
2022-08-17T21:03:56.189Z,46.76
2022-08-17T21:06:27.569Z,46.97
2022-08-17T21:08:59.411Z,47.04
2022-08-17T21:12:02.430Z,47.06
2022-08-17T21:14:49.237Z,47.55
2022-08-17T21:17:38.162Z,48.38
2022-08-17T21:20:12.874Z,48.30
2022-08-17T21:22:49.573Z,48.02
2022-08-17T21:25:29.714Z,48.41
2022-08-17T21:28:05.188Z,48.69
2022-08-17T21:30:49.483Z,48.68
2022-08-17T21:33:27.172Z,48.78
2022-08-17T21:36:17.076Z,49.02
2022-08-17T21:38:57.723Z,48.97
2022-08-17T21:41:29.165Z,49.29
2022-08-17T21:44:03.704Z,49.68
2022-08-17T21:46:37.024Z,49.82
2022-08-17T21:49:13.614Z,49.81
2022-08-17T21:51:46.040Z,49.91
2022-08-17T21:54:25.320Z,49.88
2022-08-17T21:56:55.014Z,49.86
2022-08-17T21:59:28.263Z,49.65
2022-08-17T22:01:59.050Z,49.99
2022-08-17T22:04:34.704Z,50.58
2022-08-17T22:07:05.059Z,50.57
2022-08-17T22:09:35.834Z,50.16
2022-08-17T22:12:07.712Z,50.07
2022-08-17T22:14:52.410Z,49.89
2022-08-17T22:17:25.217Z,50.01
2022-08-17T22:19:58.298Z,50.34
2022-08-17T22:22:56.300Z,50.79
